sensor_id;sensor_type;location;lat;lon;timestamp;P1;durP1;ratioP1;P2;durP2;ratioP2
44810;SDS011;30526;52.184;4.476;2022-09-13T00:00:09;11.07;;;8.68;;
44810;SDS011;30526;52.184;4.476;2022-09-13T00:02:35;12.73;;;9.05;;
44810;SDS011;30526;52.184;4.476;2022-09-13T00:05:01;15.43;;;9.32;;
44810;SDS011;30526;52.184;4.476;2022-09-13T00:07:27;17.38;;;9.52;;
44810;SDS011;30526;52.184;4.476;2022-09-13T00:09:53;17.92;;;12.15;;
44810;SDS011;30526;52.184;4.476;2022-09-13T00:12:19;16.63;;;11.85;;
44810;SDS011;30526;52.184;4.476;2022-09-13T00:14:45;14.07;;;10.55;;
44810;SDS011;30526;52.184;4.476;2022-09-13T00:17:12;12.93;;;9.57;;
44810;SDS011;30526;52.184;4.476;2022-09-13T00:19:38;14.93;;;9.82;;
44810;SDS011;30526;52.184;4.476;2022-09-13T00:22:04;16.27;;;9.95;;
44810;SDS011;30526;52.184;4.476;2022-09-13T00:24:30;15.10;;;10.05;;
44810;SDS011;30526;52.184;4.476;2022-09-13T00:26:58;18.35;;;10.82;;
44810;SDS011;30526;52.184;4.476;2022-09-13T00:29:24;15.85;;;10.77;;
44810;SDS011;30526;52.184;4.476;2022-09-13T00:31:50;13.30;;;10.23;;
44810;SDS011;30526;52.184;4.476;2022-09-13T00:34:16;21.38;;;10.57;;
44810;SDS011;30526;52.184;4.476;2022-09-13T00:36:42;17.20;;;12.02;;
44810;SDS011;30526;52.184;4.476;2022-09-13T00:39:09;13.23;;;10.52;;
44810;SDS011;30526;52.184;4.476;2022-09-13T00:41:35;15.70;;;8.43;;
44810;SDS011;30526;52.184;4.476;2022-09-13T00:44:01;17.92;;;11.48;;
44810;SDS011;30526;52.184;4.476;2022-09-13T00:51:34;15.18;;;10.77;;
44810;SDS011;30526;52.184;4.476;2022-09-13T00:54:01;18.10;;;11.60;;
44810;SDS011;30526;52.184;4.476;2022-09-13T00:56:33;16.20;;;8.90;;
44810;SDS011;30526;52.184;4.476;2022-09-13T00:59:01;21.95;;;11.95;;
44810;SDS011;30526;52.184;4.476;2022-09-13T01:01:30;14.90;;;11.48;;
44810;SDS011;30526;52.184;4.476;2022-09-13T01:03:57;21.98;;;10.60;;
44810;SDS011;30526;52.184;4.476;2022-09-13T01:06:25;9.38;;;7.45;;
44810;SDS011;30526;52.184;4.476;2022-09-13T01:09:05;14.23;;;10.27;;
44810;SDS011;30526;52.184;4.476;2022-09-13T01:14:00;18.95;;;10.35;;
44810;SDS011;30526;52.184;4.476;2022-09-13T01:16:27;13.68;;;10.85;;
44810;SDS011;30526;52.184;4.476;2022-09-13T01:18:53;17.63;;;11.18;;
44810;SDS011;30526;52.184;4.476;2022-09-13T01:23:58;15.27;;;10.73;;
44810;SDS011;30526;52.184;4.476;2022-09-13T01:45:06;18.00;;;10.63;;
44810;SDS011;30526;52.184;4.476;2022-09-13T01:47:55;17.13;;;10.85;;
44810;SDS011;30526;52.184;4.476;2022-09-13T01:55:28;12.40;;;9.15;;
44810;SDS011;30526;52.184;4.476;2022-09-13T01:58:05;11.73;;;9.88;;
44810;SDS011;30526;52.184;4.476;2022-09-13T02:00:35;14.50;;;10.35;;
44810;SDS011;30526;52.184;4.476;2022-09-13T02:03:13;15.90;;;10.85;;
44810;SDS011;30526;52.184;4.476;2022-09-13T02:06:00;16.35;;;10.85;;
44810;SDS011;30526;52.184;4.476;2022-09-13T02:08:33;14.00;;;10.18;;
44810;SDS011;30526;52.184;4.476;2022-09-13T02:11:11;18.77;;;12.55;;
44810;SDS011;30526;52.184;4.476;2022-09-13T02:13:39;14.18;;;10.68;;
44810;SDS011;30526;52.184;4.476;2022-09-13T02:16:07;15.85;;;11.05;;
44810;SDS011;30526;52.184;4.476;2022-09-13T02:18:36;14.68;;;10.77;;
44810;SDS011;30526;52.184;4.476;2022-09-13T02:21:11;13.68;;;10.55;;
44810;SDS011;30526;52.184;4.476;2022-09-13T02:23:49;16.75;;;10.57;;
44810;SDS011;30526;52.184;4.476;2022-09-13T02:26:17;14.50;;;11.20;;
44810;SDS011;30526;52.184;4.476;2022-09-13T02:28:50;15.32;;;10.48;;
44810;SDS011;30526;52.184;4.476;2022-09-13T02:32:03;14.48;;;10.02;;
44810;SDS011;30526;52.184;4.476;2022-09-13T02:34:05;13.57;;;9.70;;
44810;SDS011;30526;52.184;4.476;2022-09-13T02:36:33;12.70;;;9.75;;
44810;SDS011;30526;52.184;4.476;2022-09-13T02:39:05;14.85;;;9.88;;
44810;SDS011;30526;52.184;4.476;2022-09-13T02:41:38;11.82;;;9.32;;
44810;SDS011;30526;52.184;4.476;2022-09-13T02:44:14;14.73;;;9.82;;
44810;SDS011;30526;52.184;4.476;2022-09-13T02:46:56;15.18;;;9.85;;
44810;SDS011;30526;52.184;4.476;2022-09-13T02:54:52;12.13;;;9.57;;
44810;SDS011;30526;52.184;4.476;2022-09-13T02:57:47;12.70;;;8.70;;
44810;SDS011;30526;52.184;4.476;2022-09-13T03:00:07;14.82;;;9.40;;
44810;SDS011;30526;52.184;4.476;2022-09-13T03:02:34;12.10;;;9.65;;
44810;SDS011;30526;52.184;4.476;2022-09-13T03:05:02;12.93;;;9.02;;
44810;SDS011;30526;52.184;4.476;2022-09-13T03:07:28;16.83;;;10.65;;
44810;SDS011;30526;52.184;4.476;2022-09-13T03:09:56;12.82;;;8.85;;
44810;SDS011;30526;52.184;4.476;2022-09-13T03:12:38;15.45;;;8.95;;
44810;SDS011;30526;52.184;4.476;2022-09-13T03:15:13;10.60;;;8.40;;
44810;SDS011;30526;52.184;4.476;2022-09-13T03:17:46;11.65;;;8.43;;
44810;SDS011;30526;52.184;4.476;2022-09-13T03:30:28;16.53;;;9.53;;
44810;SDS011;30526;52.184;4.476;2022-09-13T03:40:22;12.65;;;9.82;;
44810;SDS011;30526;52.184;4.476;2022-09-13T03:43:01;12.43;;;8.88;;
44810;SDS011;30526;52.184;4.476;2022-09-13T03:45:30;14.75;;;9.35;;
44810;SDS011;30526;52.184;4.476;2022-09-13T03:47:58;18.05;;;12.30;;
44810;SDS011;30526;52.184;4.476;2022-09-13T03:50:24;17.58;;;11.45;;
44810;SDS011;30526;52.184;4.476;2022-09-13T03:52:52;20.83;;;13.73;;
44810;SDS011;30526;52.184;4.476;2022-09-13T03:55:20;17.85;;;11.85;;
44810;SDS011;30526;52.184;4.476;2022-09-13T03:57:46;20.65;;;14.05;;
44810;SDS011;30526;52.184;4.476;2022-09-13T04:00:13;27.80;;;14.60;;
44810;SDS011;30526;52.184;4.476;2022-09-13T04:02:39;29.63;;;16.80;;
44810;SDS011;30526;52.184;4.476;2022-09-13T04:05:05;21.15;;;13.93;;
44810;SDS011;30526;52.184;4.476;2022-09-13T04:07:31;23.70;;;14.73;;
44810;SDS011;30526;52.184;4.476;2022-09-13T04:09:57;27.60;;;17.65;;
44810;SDS011;30526;52.184;4.476;2022-09-13T04:12:24;32.85;;;19.30;;
44810;SDS011;30526;52.184;4.476;2022-09-13T04:14:52;26.70;;;17.92;;
44810;SDS011;30526;52.184;4.476;2022-09-13T04:17:18;28.42;;;19.73;;
44810;SDS011;30526;52.184;4.476;2022-09-13T04:19:44;38.85;;;19.83;;
44810;SDS011;30526;52.184;4.476;2022-09-13T04:22:11;32.60;;;19.95;;
44810;SDS011;30526;52.184;4.476;2022-09-13T04:24:37;30.47;;;18.60;;
44810;SDS011;30526;52.184;4.476;2022-09-13T04:27:04;28.80;;;18.65;;
44810;SDS011;30526;52.184;4.476;2022-09-13T04:29:30;28.43;;;18.57;;
44810;SDS011;30526;52.184;4.476;2022-09-13T04:31:57;29.67;;;19.40;;
44810;SDS011;30526;52.184;4.476;2022-09-13T04:34:24;25.95;;;16.80;;
44810;SDS011;30526;52.184;4.476;2022-09-13T04:36:51;23.65;;;16.67;;
44810;SDS011;30526;52.184;4.476;2022-09-13T04:39:18;28.73;;;17.45;;
44810;SDS011;30526;52.184;4.476;2022-09-13T04:41:44;23.33;;;13.82;;
44810;SDS011;30526;52.184;4.476;2022-09-13T04:44:12;27.50;;;18.17;;
44810;SDS011;30526;52.184;4.476;2022-09-13T04:46:38;25.55;;;18.08;;
44810;SDS011;30526;52.184;4.476;2022-09-13T04:49:04;23.67;;;15.43;;
44810;SDS011;30526;52.184;4.476;2022-09-13T04:51:30;21.77;;;15.40;;
44810;SDS011;30526;52.184;4.476;2022-09-13T04:53:56;23.83;;;15.88;;
44810;SDS011;30526;52.184;4.476;2022-09-13T04:56:23;18.63;;;12.98;;
44810;SDS011;30526;52.184;4.476;2022-09-13T04:58:49;25.02;;;13.82;;
44810;SDS011;30526;52.184;4.476;2022-09-13T05:01:16;20.45;;;12.82;;
44810;SDS011;30526;52.184;4.476;2022-09-13T05:03:42;19.92;;;11.80;;
44810;SDS011;30526;52.184;4.476;2022-09-13T05:06:09;16.70;;;12.15;;
44810;SDS011;30526;52.184;4.476;2022-09-13T05:08:36;15.95;;;10.88;;
44810;SDS011;30526;52.184;4.476;2022-09-13T05:11:02;14.63;;;10.45;;
44810;SDS011;30526;52.184;4.476;2022-09-13T05:13:28;18.87;;;10.47;;
44810;SDS011;30526;52.184;4.476;2022-09-13T05:15:58;16.58;;;9.93;;
44810;SDS011;30526;52.184;4.476;2022-09-13T05:18:25;14.02;;;9.77;;
44810;SDS011;30526;52.184;4.476;2022-09-13T05:20:54;14.80;;;8.40;;
44810;SDS011;30526;52.184;4.476;2022-09-13T05:23:21;14.48;;;8.70;;
44810;SDS011;30526;52.184;4.476;2022-09-13T05:26:08;10.27;;;6.95;;
44810;SDS011;30526;52.184;4.476;2022-09-13T05:28:34;11.57;;;5.70;;
44810;SDS011;30526;52.184;4.476;2022-09-13T05:33:46;6.97;;;4.38;;
44810;SDS011;30526;52.184;4.476;2022-09-13T05:36:13;4.43;;;2.33;;
44810;SDS011;30526;52.184;4.476;2022-09-13T05:38:39;6.10;;;2.50;;
44810;SDS011;30526;52.184;4.476;2022-09-13T05:41:05;5.15;;;2.30;;
44810;SDS011;30526;52.184;4.476;2022-09-13T05:43:32;5.47;;;2.03;;
44810;SDS011;30526;52.184;4.476;2022-09-13T05:46:00;6.60;;;1.92;;
44810;SDS011;30526;52.184;4.476;2022-09-13T05:50:52;2.72;;;1.52;;
44810;SDS011;30526;52.184;4.476;2022-09-13T05:53:18;3.42;;;1.60;;
44810;SDS011;30526;52.184;4.476;2022-09-13T05:55:44;3.08;;;1.50;;
44810;SDS011;30526;52.184;4.476;2022-09-13T05:58:10;4.20;;;1.65;;
44810;SDS011;30526;52.184;4.476;2022-09-13T06:00:36;2.17;;;1.60;;
44810;SDS011;30526;52.184;4.476;2022-09-13T06:03:03;5.57;;;1.70;;
44810;SDS011;30526;52.184;4.476;2022-09-13T06:05:29;2.65;;;1.67;;
44810;SDS011;30526;52.184;4.476;2022-09-13T06:07:55;3.08;;;1.55;;
44810;SDS011;30526;52.184;4.476;2022-09-13T06:10:21;8.90;;;1.70;;
44810;SDS011;30526;52.184;4.476;2022-09-13T06:12:49;4.93;;;1.80;;
44810;SDS011;30526;52.184;4.476;2022-09-13T06:15:15;3.60;;;2.20;;
44810;SDS011;30526;52.184;4.476;2022-09-13T06:17:41;4.60;;;2.10;;
44810;SDS011;30526;52.184;4.476;2022-09-13T06:20:07;5.38;;;1.92;;
44810;SDS011;30526;52.184;4.476;2022-09-13T06:22:34;7.57;;;1.90;;
44810;SDS011;30526;52.184;4.476;2022-09-13T06:25:00;7.03;;;2.33;;
44810;SDS011;30526;52.184;4.476;2022-09-13T06:27:28;5.60;;;2.65;;
44810;SDS011;30526;52.184;4.476;2022-09-13T06:29:54;7.70;;;2.08;;
44810;SDS011;30526;52.184;4.476;2022-09-13T06:32:20;5.60;;;2.08;;
44810;SDS011;30526;52.184;4.476;2022-09-13T06:34:46;7.07;;;2.20;;
44810;SDS011;30526;52.184;4.476;2022-09-13T06:37:12;8.77;;;1.90;;
44810;SDS011;30526;52.184;4.476;2022-09-13T06:39:38;5.80;;;2.03;;
44810;SDS011;30526;52.184;4.476;2022-09-13T06:42:05;10.30;;;2.30;;
44810;SDS011;30526;52.184;4.476;2022-09-13T06:44:31;4.90;;;1.70;;
44810;SDS011;30526;52.184;4.476;2022-09-13T06:46:57;6.50;;;2.40;;
44810;SDS011;30526;52.184;4.476;2022-09-13T06:49:23;3.80;;;1.70;;
44810;SDS011;30526;52.184;4.476;2022-09-13T06:51:49;5.32;;;1.83;;
44810;SDS011;30526;52.184;4.476;2022-09-13T06:54:15;3.33;;;1.80;;
44810;SDS011;30526;52.184;4.476;2022-09-13T06:56:41;4.10;;;1.67;;
44810;SDS011;30526;52.184;4.476;2022-09-13T06:59:08;1.60;;;1.35;;
44810;SDS011;30526;52.184;4.476;2022-09-13T07:04:02;4.95;;;1.52;;
44810;SDS011;30526;52.184;4.476;2022-09-13T07:06:29;2.00;;;1.25;;
44810;SDS011;30526;52.184;4.476;2022-09-13T07:08:56;3.78;;;1.95;;
44810;SDS011;30526;52.184;4.476;2022-09-13T07:11:23;2.20;;;1.10;;
44810;SDS011;30526;52.184;4.476;2022-09-13T07:13:50;2.80;;;1.52;;
44810;SDS011;30526;52.184;4.476;2022-09-13T07:16:17;2.17;;;1.10;;
44810;SDS011;30526;52.184;4.476;2022-09-13T07:18:43;5.30;;;1.30;;
44810;SDS011;30526;52.184;4.476;2022-09-13T07:21:10;3.53;;;0.98;;
44810;SDS011;30526;52.184;4.476;2022-09-13T07:23:37;3.40;;;1.47;;
44810;SDS011;30526;52.184;4.476;2022-09-13T07:28:34;3.40;;;1.33;;
44810;SDS011;30526;52.184;4.476;2022-09-13T07:31:08;4.93;;;1.17;;
44810;SDS011;30526;52.184;4.476;2022-09-13T07:33:35;3.83;;;1.27;;
44810;SDS011;30526;52.184;4.476;2022-09-13T07:36:01;2.65;;;1.20;;
44810;SDS011;30526;52.184;4.476;2022-09-13T07:38:30;2.33;;;0.93;;
44810;SDS011;30526;52.184;4.476;2022-09-13T07:40:57;3.03;;;1.30;;
44810;SDS011;30526;52.184;4.476;2022-09-13T07:43:24;5.40;;;1.38;;
44810;SDS011;30526;52.184;4.476;2022-09-13T07:45:57;4.15;;;1.38;;
44810;SDS011;30526;52.184;4.476;2022-09-13T07:48:23;4.80;;;1.25;;
44810;SDS011;30526;52.184;4.476;2022-09-13T07:50:59;4.82;;;1.40;;
44810;SDS011;30526;52.184;4.476;2022-09-13T07:53:25;3.27;;;0.90;;
44810;SDS011;30526;52.184;4.476;2022-09-13T07:55:51;5.15;;;1.15;;
44810;SDS011;30526;52.184;4.476;2022-09-13T07:58:17;4.20;;;1.30;;
44810;SDS011;30526;52.184;4.476;2022-09-13T08:00:43;6.43;;;1.20;;
44810;SDS011;30526;52.184;4.476;2022-09-13T08:03:10;5.70;;;1.20;;
44810;SDS011;30526;52.184;4.476;2022-09-13T08:05:40;9.27;;;1.05;;
44810;SDS011;30526;52.184;4.476;2022-09-13T08:08:06;3.78;;;1.35;;
44810;SDS011;30526;52.184;4.476;2022-09-13T08:10:32;5.93;;;1.00;;
44810;SDS011;30526;52.184;4.476;2022-09-13T08:12:58;5.38;;;1.30;;
44810;SDS011;30526;52.184;4.476;2022-09-13T08:15:24;1.58;;;0.70;;
44810;SDS011;30526;52.184;4.476;2022-09-13T08:17:50;3.22;;;0.80;;
44810;SDS011;30526;52.184;4.476;2022-09-13T08:20:18;2.45;;;1.00;;
44810;SDS011;30526;52.184;4.476;2022-09-13T08:22:44;3.00;;;1.20;;
44810;SDS011;30526;52.184;4.476;2022-09-13T08:25:10;3.17;;;1.15;;
44810;SDS011;30526;52.184;4.476;2022-09-13T08:27:36;5.45;;;1.10;;
44810;SDS011;30526;52.184;4.476;2022-09-13T08:30:03;3.95;;;1.20;;
44810;SDS011;30526;52.184;4.476;2022-09-13T08:32:29;5.00;;;1.13;;
44810;SDS011;30526;52.184;4.476;2022-09-13T08:34:55;3.83;;;1.20;;
44810;SDS011;30526;52.184;4.476;2022-09-13T08:37:21;10.38;;;1.52;;
44810;SDS011;30526;52.184;4.476;2022-09-13T08:39:47;3.35;;;1.13;;
44810;SDS011;30526;52.184;4.476;2022-09-13T08:42:28;4.88;;;1.08;;
44810;SDS011;30526;52.184;4.476;2022-09-13T08:44:57;9.35;;;1.55;;
44810;SDS011;30526;52.184;4.476;2022-09-13T08:47:34;5.53;;;1.45;;
44810;SDS011;30526;52.184;4.476;2022-09-13T08:50:04;5.18;;;1.17;;
44810;SDS011;30526;52.184;4.476;2022-09-13T08:52:37;6.00;;;1.30;;
44810;SDS011;30526;52.184;4.476;2022-09-13T08:55:21;4.88;;;0.98;;
44810;SDS011;30526;52.184;4.476;2022-09-13T08:57:58;3.83;;;1.13;;
44810;SDS011;30526;52.184;4.476;2022-09-13T09:00:30;5.20;;;1.20;;
44810;SDS011;30526;52.184;4.476;2022-09-13T09:03:05;4.13;;;0.98;;
44810;SDS011;30526;52.184;4.476;2022-09-13T09:05:48;4.40;;;1.30;;
44810;SDS011;30526;52.184;4.476;2022-09-13T09:10:50;2.92;;;1.23;;
44810;SDS011;30526;52.184;4.476;2022-09-13T09:13:24;4.80;;;1.42;;
44810;SDS011;30526;52.184;4.476;2022-09-13T09:15:55;5.70;;;1.27;;
44810;SDS011;30526;52.184;4.476;2022-09-13T09:20:55;6.45;;;1.40;;
44810;SDS011;30526;52.184;4.476;2022-09-13T09:23:52;4.60;;;1.33;;
44810;SDS011;30526;52.184;4.476;2022-09-13T09:26:20;5.57;;;1.30;;
44810;SDS011;30526;52.184;4.476;2022-09-13T09:28:49;3.75;;;1.20;;
44810;SDS011;30526;52.184;4.476;2022-09-13T09:39:04;7.80;;;1.48;;
44810;SDS011;30526;52.184;4.476;2022-09-13T09:41:32;6.88;;;1.10;;
44810;SDS011;30526;52.184;4.476;2022-09-13T09:46:26;3.07;;;1.10;;
44810;SDS011;30526;52.184;4.476;2022-09-13T09:48:55;5.00;;;1.40;;
44810;SDS011;30526;52.184;4.476;2022-09-13T09:51:22;4.30;;;1.10;;
44810;SDS011;30526;52.184;4.476;2022-09-13T09:53:51;5.03;;;0.98;;
44810;SDS011;30526;52.184;4.476;2022-09-13T09:56:22;3.25;;;0.95;;
44810;SDS011;30526;52.184;4.476;2022-09-13T09:58:51;5.25;;;1.15;;
44810;SDS011;30526;52.184;4.476;2022-09-13T10:03:51;4.28;;;0.77;;
44810;SDS011;30526;52.184;4.476;2022-09-13T10:06:21;3.13;;;1.20;;
44810;SDS011;30526;52.184;4.476;2022-09-13T10:08:53;2.88;;;0.98;;
44810;SDS011;30526;52.184;4.476;2022-09-13T10:11:20;4.47;;;1.00;;
44810;SDS011;30526;52.184;4.476;2022-09-13T10:13:59;2.65;;;0.93;;
44810;SDS011;30526;52.184;4.476;2022-09-13T10:16:29;8.70;;;1.70;;
44810;SDS011;30526;52.184;4.476;2022-09-13T10:21:40;4.47;;;1.05;;
44810;SDS011;30526;52.184;4.476;2022-09-13T10:24:15;5.90;;;1.15;;
44810;SDS011;30526;52.184;4.476;2022-09-13T10:26:42;6.03;;;1.40;;
44810;SDS011;30526;52.184;4.476;2022-09-13T10:29:09;2.95;;;0.93;;
44810;SDS011;30526;52.184;4.476;2022-09-13T10:31:38;5.55;;;1.10;;
44810;SDS011;30526;52.184;4.476;2022-09-13T10:34:10;2.58;;;0.70;;
44810;SDS011;30526;52.184;4.476;2022-09-13T10:36:40;4.30;;;1.10;;
44810;SDS011;30526;52.184;4.476;2022-09-13T10:39:14;7.80;;;1.20;;
44810;SDS011;30526;52.184;4.476;2022-09-13T10:41:42;4.60;;;1.27;;
44810;SDS011;30526;52.184;4.476;2022-09-13T10:46:54;5.85;;;0.90;;
44810;SDS011;30526;52.184;4.476;2022-09-13T10:49:41;6.22;;;1.40;;
44810;SDS011;30526;52.184;4.476;2022-09-13T10:52:29;5.55;;;1.00;;
44810;SDS011;30526;52.184;4.476;2022-09-13T10:55:03;3.33;;;0.68;;
44810;SDS011;30526;52.184;4.476;2022-09-13T10:57:39;3.55;;;1.00;;
44810;SDS011;30526;52.184;4.476;2022-09-13T11:00:06;3.35;;;0.93;;
44810;SDS011;30526;52.184;4.476;2022-09-13T11:02:38;2.03;;;0.70;;
44810;SDS011;30526;52.184;4.476;2022-09-13T11:05:20;6.00;;;1.08;;
44810;SDS011;30526;52.184;4.476;2022-09-13T11:18:30;4.43;;;1.02;;
44810;SDS011;30526;52.184;4.476;2022-09-13T11:21:15;4.55;;;0.77;;
44810;SDS011;30526;52.184;4.476;2022-09-13T11:41:48;7.10;;;1.15;;
44810;SDS011;30526;52.184;4.476;2022-09-13T11:49:46;5.18;;;0.90;;
44810;SDS011;30526;52.184;4.476;2022-09-13T11:57:51;4.78;;;0.77;;
44810;SDS011;30526;52.184;4.476;2022-09-13T12:00:31;3.78;;;0.60;;
44810;SDS011;30526;52.184;4.476;2022-09-13T12:05:46;3.55;;;0.80;;
44810;SDS011;30526;52.184;4.476;2022-09-13T12:08:23;2.47;;;0.80;;
44810;SDS011;30526;52.184;4.476;2022-09-13T12:10:55;3.90;;;0.70;;
44810;SDS011;30526;52.184;4.476;2022-09-13T12:13:25;3.08;;;0.63;;
44810;SDS011;30526;52.184;4.476;2022-09-13T12:16:04;6.00;;;0.90;;
44810;SDS011;30526;52.184;4.476;2022-09-13T12:18:33;5.13;;;0.73;;
44810;SDS011;30526;52.184;4.476;2022-09-13T12:21:07;2.45;;;0.80;;
44810;SDS011;30526;52.184;4.476;2022-09-13T12:23:35;5.85;;;0.70;;
44810;SDS011;30526;52.184;4.476;2022-09-13T12:26:04;3.60;;;0.80;;
44810;SDS011;30526;52.184;4.476;2022-09-13T12:28:33;3.25;;;0.70;;
44810;SDS011;30526;52.184;4.476;2022-09-13T12:31:03;2.72;;;0.70;;
44810;SDS011;30526;52.184;4.476;2022-09-13T12:33:29;4.45;;;0.90;;
44810;SDS011;30526;52.184;4.476;2022-09-13T12:36:17;5.75;;;0.93;;
44810;SDS011;30526;52.184;4.476;2022-09-13T12:38:48;5.80;;;0.75;;
44810;SDS011;30526;52.184;4.476;2022-09-13T12:51:37;4.93;;;0.75;;
44810;SDS011;30526;52.184;4.476;2022-09-13T12:56:41;1.67;;;0.73;;
44810;SDS011;30526;52.184;4.476;2022-09-13T13:01:35;4.35;;;0.65;;
44810;SDS011;30526;52.184;4.476;2022-09-13T13:06:38;4.18;;;0.77;;
44810;SDS011;30526;52.184;4.476;2022-09-13T13:09:51;2.90;;;0.70;;
44810;SDS011;30526;52.184;4.476;2022-09-13T13:11:52;4.90;;;0.80;;
44810;SDS011;30526;52.184;4.476;2022-09-13T13:14:29;3.75;;;0.90;;
44810;SDS011;30526;52.184;4.476;2022-09-13T13:19:41;2.80;;;0.80;;
44810;SDS011;30526;52.184;4.476;2022-09-13T13:24:53;4.22;;;0.90;;
44810;SDS011;30526;52.184;4.476;2022-09-13T13:27:33;3.00;;;0.87;;
44810;SDS011;30526;52.184;4.476;2022-09-13T13:30:33;8.13;;;0.82;;
44810;SDS011;30526;52.184;4.476;2022-09-13T13:33:04;4.80;;;0.90;;
44810;SDS011;30526;52.184;4.476;2022-09-13T13:35:31;5.35;;;0.80;;
44810;SDS011;30526;52.184;4.476;2022-09-13T13:38:12;2.20;;;0.70;;
44810;SDS011;30526;52.184;4.476;2022-09-13T13:40:38;3.58;;;0.70;;
44810;SDS011;30526;52.184;4.476;2022-09-13T13:43:24;6.70;;;1.00;;
44810;SDS011;30526;52.184;4.476;2022-09-13T13:46:36;4.10;;;0.90;;
44810;SDS011;30526;52.184;4.476;2022-09-13T13:48:43;4.00;;;0.73;;
44810;SDS011;30526;52.184;4.476;2022-09-13T13:51:26;3.97;;;0.73;;
44810;SDS011;30526;52.184;4.476;2022-09-13T13:53:54;5.65;;;0.75;;
44810;SDS011;30526;52.184;4.476;2022-09-13T13:56:27;2.35;;;0.60;;
44810;SDS011;30526;52.184;4.476;2022-09-13T13:58:55;4.57;;;0.70;;
44810;SDS011;30526;52.184;4.476;2022-09-13T14:01:27;4.68;;;0.70;;
44810;SDS011;30526;52.184;4.476;2022-09-13T14:06:43;2.10;;;0.68;;
44810;SDS011;30526;52.184;4.476;2022-09-13T14:19:30;6.25;;;1.00;;
44810;SDS011;30526;52.184;4.476;2022-09-13T14:24:52;3.38;;;0.80;;
44810;SDS011;30526;52.184;4.476;2022-09-13T14:27:20;7.70;;;0.85;;
44810;SDS011;30526;52.184;4.476;2022-09-13T14:29:48;2.75;;;0.73;;
44810;SDS011;30526;52.184;4.476;2022-09-13T14:32:15;3.08;;;0.80;;
44810;SDS011;30526;52.184;4.476;2022-09-13T14:34:53;2.50;;;0.80;;
44810;SDS011;30526;52.184;4.476;2022-09-13T14:37:20;3.38;;;0.90;;
44810;SDS011;30526;52.184;4.476;2022-09-13T14:42:38;4.47;;;0.90;;
44810;SDS011;30526;52.184;4.476;2022-09-13T14:47:32;3.25;;;0.98;;
44810;SDS011;30526;52.184;4.476;2022-09-13T14:50:23;3.60;;;1.08;;
44810;SDS011;30526;52.184;4.476;2022-09-13T14:52:47;3.17;;;0.70;;
44810;SDS011;30526;52.184;4.476;2022-09-13T14:55:15;2.80;;;1.10;;
44810;SDS011;30526;52.184;4.476;2022-09-13T14:57:45;2.90;;;0.90;;
44810;SDS011;30526;52.184;4.476;2022-09-13T15:00:15;5.05;;;1.00;;
44810;SDS011;30526;52.184;4.476;2022-09-13T15:02:45;1.02;;;0.50;;
44810;SDS011;30526;52.184;4.476;2022-09-13T15:05:13;4.88;;;0.88;;
44810;SDS011;30526;52.184;4.476;2022-09-13T15:07:42;3.45;;;1.05;;
44810;SDS011;30526;52.184;4.476;2022-09-13T15:10:18;3.67;;;1.05;;
44810;SDS011;30526;52.184;4.476;2022-09-13T15:12:52;5.95;;;0.90;;
44810;SDS011;30526;52.184;4.476;2022-09-13T15:20:24;2.55;;;1.00;;
44810;SDS011;30526;52.184;4.476;2022-09-13T15:22:50;5.25;;;1.00;;
44810;SDS011;30526;52.184;4.476;2022-09-13T15:25:25;5.40;;;1.08;;
44810;SDS011;30526;52.184;4.476;2022-09-13T15:27:52;2.85;;;0.90;;
44810;SDS011;30526;52.184;4.476;2022-09-13T15:30:23;5.63;;;1.10;;
44810;SDS011;30526;52.184;4.476;2022-09-13T15:32:49;5.38;;;1.10;;
44810;SDS011;30526;52.184;4.476;2022-09-13T15:35:28;4.13;;;0.80;;
44810;SDS011;30526;52.184;4.476;2022-09-13T15:38:46;4.20;;;1.23;;
44810;SDS011;30526;52.184;4.476;2022-09-13T15:40:46;4.40;;;0.80;;
44810;SDS011;30526;52.184;4.476;2022-09-13T15:43:12;3.33;;;0.95;;
44810;SDS011;30526;52.184;4.476;2022-09-13T15:45:38;4.57;;;0.88;;
44810;SDS011;30526;52.184;4.476;2022-09-13T15:48:04;6.30;;;1.10;;
44810;SDS011;30526;52.184;4.476;2022-09-13T15:50:31;3.83;;;1.00;;
44810;SDS011;30526;52.184;4.476;2022-09-13T15:52:57;5.70;;;1.42;;
44810;SDS011;30526;52.184;4.476;2022-09-13T15:55:24;6.43;;;1.30;;
44810;SDS011;30526;52.184;4.476;2022-09-13T15:57:50;5.32;;;1.00;;
44810;SDS011;30526;52.184;4.476;2022-09-13T16:00:21;9.38;;;1.40;;
44810;SDS011;30526;52.184;4.476;2022-09-13T16:02:47;7.28;;;1.30;;
44810;SDS011;30526;52.184;4.476;2022-09-13T16:05:14;3.60;;;1.10;;
44810;SDS011;30526;52.184;4.476;2022-09-13T16:07:40;9.83;;;1.60;;
44810;SDS011;30526;52.184;4.476;2022-09-13T16:10:11;2.17;;;0.80;;
44810;SDS011;30526;52.184;4.476;2022-09-13T16:12:37;7.78;;;0.85;;
44810;SDS011;30526;52.184;4.476;2022-09-13T16:15:03;8.18;;;1.25;;
44810;SDS011;30526;52.184;4.476;2022-09-13T16:17:29;9.38;;;1.20;;
44810;SDS011;30526;52.184;4.476;2022-09-13T16:19:55;4.95;;;1.10;;
44810;SDS011;30526;52.184;4.476;2022-09-13T16:22:21;5.47;;;1.23;;
44810;SDS011;30526;52.184;4.476;2022-09-13T16:24:47;1.58;;;0.70;;
44810;SDS011;30526;52.184;4.476;2022-09-13T16:27:15;5.32;;;1.17;;
44810;SDS011;30526;52.184;4.476;2022-09-13T16:29:41;4.68;;;0.90;;
44810;SDS011;30526;52.184;4.476;2022-09-13T16:32:07;4.35;;;1.02;;
44810;SDS011;30526;52.184;4.476;2022-09-13T16:34:33;7.93;;;1.40;;
44810;SDS011;30526;52.184;4.476;2022-09-13T16:36:59;4.05;;;1.20;;
44810;SDS011;30526;52.184;4.476;2022-09-13T16:39:25;12.23;;;1.20;;
44810;SDS011;30526;52.184;4.476;2022-09-13T16:41:51;9.50;;;1.50;;
44810;SDS011;30526;52.184;4.476;2022-09-13T16:44:17;5.57;;;1.85;;
44810;SDS011;30526;52.184;4.476;2022-09-13T16:46:43;4.28;;;1.13;;
44810;SDS011;30526;52.184;4.476;2022-09-13T16:49:10;6.65;;;1.83;;
44810;SDS011;30526;52.184;4.476;2022-09-13T16:51:36;4.53;;;1.27;;
44810;SDS011;30526;52.184;4.476;2022-09-13T16:54:02;5.30;;;1.20;;
44810;SDS011;30526;52.184;4.476;2022-09-13T16:56:28;7.57;;;1.08;;
44810;SDS011;30526;52.184;4.476;2022-09-13T16:58:54;5.93;;;1.00;;
44810;SDS011;30526;52.184;4.476;2022-09-13T17:01:22;5.18;;;1.25;;
44810;SDS011;30526;52.184;4.476;2022-09-13T17:03:48;6.80;;;1.05;;
44810;SDS011;30526;52.184;4.476;2022-09-13T17:06:15;5.30;;;1.15;;
44810;SDS011;30526;52.184;4.476;2022-09-13T17:08:48;5.00;;;1.10;;
44810;SDS011;30526;52.184;4.476;2022-09-13T17:11:15;7.97;;;1.40;;
44810;SDS011;30526;52.184;4.476;2022-09-13T17:13:41;9.82;;;1.40;;
44810;SDS011;30526;52.184;4.476;2022-09-13T17:16:18;11.73;;;1.48;;
44810;SDS011;30526;52.184;4.476;2022-09-13T17:18:44;6.60;;;1.40;;
44810;SDS011;30526;52.184;4.476;2022-09-13T17:21:10;5.60;;;1.23;;
44810;SDS011;30526;52.184;4.476;2022-09-13T17:23:36;7.97;;;1.30;;
44810;SDS011;30526;52.184;4.476;2022-09-13T17:26:02;9.45;;;1.23;;
44810;SDS011;30526;52.184;4.476;2022-09-13T17:28:28;2.65;;;0.80;;
44810;SDS011;30526;52.184;4.476;2022-09-13T17:30:54;7.30;;;1.48;;
44810;SDS011;30526;52.184;4.476;2022-09-13T17:33:20;4.38;;;1.38;;
44810;SDS011;30526;52.184;4.476;2022-09-13T17:35:46;7.00;;;1.00;;
44810;SDS011;30526;52.184;4.476;2022-09-13T17:38:22;7.57;;;1.38;;
44810;SDS011;30526;52.184;4.476;2022-09-13T17:40:57;8.85;;;1.20;;
44810;SDS011;30526;52.184;4.476;2022-09-13T17:43:23;7.68;;;1.17;;
44810;SDS011;30526;52.184;4.476;2022-09-13T17:45:49;6.05;;;1.17;;
44810;SDS011;30526;52.184;4.476;2022-09-13T17:48:14;9.35;;;1.60;;
44810;SDS011;30526;52.184;4.476;2022-09-13T17:50:40;7.45;;;1.52;;
44810;SDS011;30526;52.184;4.476;2022-09-13T17:53:06;10.90;;;1.40;;
44810;SDS011;30526;52.184;4.476;2022-09-13T17:55:32;6.72;;;1.38;;